Time;durP1;ratioP1;P1;durP2;ratioP2;P2;SDS_P1;SDS_P2;PMS_P1;PMS_P2;Temp;Humidity;BMP_temperature;BMP_pressure;BME280_temperature;BME280_humidity;BME280_pressure;Samples;Min_cycle;Max_cycle;Signal;HPM_P1;HPM_P2
2021/12/24 00:01:22;;;;;;;45.90;26.80;;;;;;;-0.87;100.00;95471.31;5062419;28;20435;-72
2021/12/24 00:03:50;;;;;;;39.93;26.20;;;;;;;-1.03;100.00;95453.28;5078115;28;20802;-72
2021/12/24 00:06:16;;;;;;;48.07;28.30;;;;;;;-0.91;100.00;95471.09;5077642;28;20526;-72
2021/12/24 00:08:47;;;;;;;43.00;26.67;;;;;;;-1.17;100.00;95423.09;5077161;28;20447;-72
2021/12/24 00:11:15;;;;;;;47.30;29.23;;;;;;;-0.91;100.00;95460.72;5078088;28;20446;-72
2021/12/24 00:13:46;;;;;;;42.53;25.93;;;;;;;-1.19;100.00;95415.59;5077774;28;20500;-72
2021/12/24 00:37:36;;;;;;;38.00;23.80;;;;;;;-0.98;100.00;95418.75;5076605;28;21028;-72
2021/12/24 00:40:37;;;;;;;44.57;27.63;;;;;;;-1.03;100.00;95400.66;5076492;28;20447;-72
2021/12/24 00:42:57;;;;;;;44.50;25.97;;;;;;;-0.97;100.00;95402.13;5073069;28;20435;-72
2021/12/24 00:45:27;;;;;;;44.37;24.20;;;;;;;-0.94;100.00;95393.78;5076534;28;20439;-72
2021/12/24 00:47:56;;;;;;;47.00;27.97;;;;;;;-1.00;100.00;95379.34;5076383;28;20455;-72
2021/12/24 00:50:26;;;;;;;49.07;26.80;;;;;;;-0.92;100.00;95389.13;5060143;28;20445;-72
2021/12/24 00:55:02;;;;;;;43.70;27.90;;;;;;;-0.93;100.00;95387.59;5076463;28;20431;-72
2021/12/24 00:55:50;;;;;;;47.67;27.40;;;;;;;-1.03;100.00;95375.50;5076327;28;20450;-72
2021/12/24 00:58:17;;;;;;;44.27;26.73;;;;;;;-0.95;100.00;95389.66;5059638;28;21082;-72
2021/12/24 01:00:44;;;;;;;39.43;23.83;;;;;;;-0.90;100.00;95385.19;5094654;28;20446;-72
2021/12/24 01:03:12;;;;;;;42.13;24.13;;;;;;;-0.83;100.00;95382.25;5076103;28;20435;-71
2021/12/24 01:05:40;;;;;;;41.87;22.53;;;;;;;-0.83;100.00;95390.03;5094407;28;20446;-72
2021/12/24 01:08:09;;;;;;;31.93;21.10;;;;;;;-0.83;100.00;95387.44;5075775;28;20448;-72
2021/12/24 01:10:39;;;;;;;41.77;23.90;;;;;;;-0.73;100.00;95382.16;5075430;28;20470;-72
2021/12/24 01:13:06;;;;;;;41.80;24.60;;;;;;;-0.59;100.00;95371.88;5059158;28;20455;-72
2021/12/24 01:15:35;;;;;;;45.13;24.63;;;;;;;-0.69;100.00;95366.78;5059087;28;20473;-72
2021/12/24 01:18:12;;;;;;;35.17;20.97;;;;;;;-0.48;100.00;95367.31;5075247;28;20478;-72
2021/12/24 01:20:47;;;;;;;43.97;24.03;;;;;;;-0.57;100.00;95359.38;5075447;28;20455;-72
2021/12/24 01:26:10;;;;;;;37.00;24.70;;;;;;;-0.52;100.00;95392.31;5093645;28;20845;-72
2021/12/24 01:42:42;;;;;;;19.80;14.30;;;;;;;1.54;100.00;95362.38;5044794;28;20610;-72
2021/12/24 01:45:28;;;;;;;19.10;12.20;;;;;;;2.31;100.00;95346.59;5058552;28;20946;-72
2021/12/24 01:47:59;;;;;;;12.70;10.47;;;;;;;2.89;100.00;95352.72;5075122;28;20814;-72
2021/12/24 01:50:28;;;;;;;15.57;11.40;;;;;;;2.85;100.00;95367.47;5058453;28;20443;-72
2021/12/24 01:52:56;;;;;;;20.40;14.30;;;;;;;2.96;100.00;95351.25;5058353;28;20450;-72
2021/12/24 01:55:26;;;;;;;15.10;12.10;;;;;;;3.27;100.00;95363.47;5074812;28;20874;-72
2021/12/24 01:57:53;;;;;;;17.33;12.53;;;;;;;3.33;100.00;95359.63;5074612;28;20463;-72
2021/12/24 02:00:24;;;;;;;18.53;11.40;;;;;;;3.42;100.00;95352.59;5058170;28;20436;-72
2021/12/24 02:02:52;;;;;;;13.33;9.40;;;;;;;3.64;100.00;95343.91;5058069;28;20451;-72
2021/12/24 02:05:19;;;;;;;13.70;10.47;;;;;;;3.75;100.00;95358.22;5074889;28;20441;-72
2021/12/24 02:07:47;;;;;;;17.07;10.87;;;;;;;3.71;100.00;95357.25;5074371;28;20477;-71
2021/12/24 02:10:15;;;;;;;16.07;11.07;;;;;;;3.70;100.00;95339.28;5058005;28;20436;-72
2021/12/24 02:12:42;;;;;;;14.57;10.10;;;;;;;3.73;100.00;95347.25;5057774;28;20439;-72
2021/12/24 02:15:21;;;;;;;17.33;8.93;;;;;;;3.76;100.00;95336.22;5074360;28;20470;-72
2021/12/24 02:28:54;;;;;;;18.17;10.30;;;;;;;4.20;100.00;95344.06;5034488;28;20443;-72
2021/12/24 02:31:24;;;;;;;18.73;10.07;;;;;;;4.06;100.00;95320.69;5057612;28;20447;-72
2021/12/24 02:33:51;;;;;;;17.00;11.17;;;;;;;4.23;100.00;95340.81;5074054;28;20439;-72
2021/12/24 02:36:20;;;;;;;14.07;10.83;;;;;;;4.22;100.00;95332.19;5057520;28;20447;-72
2021/12/24 02:38:48;;;;;;;14.10;9.37;;;;;;;4.23;100.00;95331.13;5073798;28;20455;-72
2021/12/24 02:41:15;;;;;;;16.17;11.43;;;;;;;4.31;100.00;95329.59;5057337;28;20500;-72
2021/12/24 02:43:42;;;;;;;12.37;9.40;;;;;;;4.22;100.00;95305.28;5057287;28;20482;-72
2021/12/24 02:46:14;;;;;;;11.77;9.60;;;;;;;4.30;100.00;95302.66;5057120;28;20438;-72
2021/12/24 02:54:11;;;;;;;13.20;10.47;;;;;;;4.54;100.00;95323.06;5091917;28;20427;-72
2021/12/24 02:56:40;;;;;;;12.70;10.20;;;;;;;4.52;100.00;95319.22;5073538;28;20436;-73
2021/12/24 02:59:12;;;;;;;16.07;11.27;;;;;;;4.53;100.00;95318.91;5073415;28;20873;-72
2021/12/24 03:01:42;;;;;;;13.57;10.43;;;;;;;4.30;100.00;95283.56;5073429;28;20450;-73
2021/12/24 03:04:09;;;;;;;14.13;10.63;;;;;;;4.54;100.00;95304.75;5073768;28;20519;-73
2021/12/24 03:06:40;;;;;;;11.23;9.10;;;;;;;4.37;100.00;95289.06;5056867;28;20450;-73
2021/12/24 03:09:11;;;;;;;18.40;10.07;;;;;;;4.47;100.00;95306.31;5073332;28;20497;-73
2021/12/24 03:11:38;;;;;;;13.53;10.17;;;;;;;4.48;100.00;95285.06;5073356;28;20423;-73
2021/12/24 03:14:07;;;;;;;12.00;9.40;;;;;;;4.57;100.00;95303.34;5073534;28;20442;-73
2021/12/24 03:16:36;;;;;;;13.90;10.10;;;;;;;4.50;100.00;95293.34;5073111;28;20436;-73
2021/12/24 03:19:03;;;;;;;15.13;10.93;;;;;;;4.65;100.00;95298.06;5073186;28;20468;-73
2021/12/24 03:22:12;;;;;;;12.47;10.03;;;;;;;4.73;100.00;95305.16;5056735;28;20435;-73
2021/12/24 03:26:50;;;;;;;15.80;9.93;;;;;;;4.79;100.00;95291.88;5073005;28;20994;-73
2021/12/24 03:29:18;;;;;;;11.00;9.47;;;;;;;4.62;100.00;95263.91;5056676;28;20436;-73
2021/12/24 03:31:46;;;;;;;15.43;9.20;;;;;;;4.84;100.00;95299.56;5073095;28;20530;-74
2021/12/24 03:34:16;;;;;;;14.03;10.00;;;;;;;4.75;100.00;95286.50;5055629;28;20447;-73
2021/12/24 03:36:44;;;;;;;10.50;7.87;;;;;;;4.88;100.00;95282.91;5073110;28;20443;-73
2021/12/24 03:39:13;;;;;;;15.03;9.00;;;;;;;4.92;100.00;95288.28;5072998;28;20540;-75
2021/12/24 03:41:42;;;;;;;10.80;8.00;;;;;;;4.89;100.00;95276.59;5056627;28;20534;-74
2021/12/24 03:44:11;;;;;;;13.90;10.17;;;;;;;4.95;100.00;95288.44;5072960;28;20514;-73
2021/12/24 03:49:17;;;;;;;13.70;9.50;;;;;;;4.90;100.00;95264.25;5091120;28;20440;-74
2021/12/24 03:54:59;;;;;;;10.33;8.17;;;;;;;4.74;100.00;95248.31;5036189;28;20497;-73
2021/12/24 03:57:37;;;;;;;11.00;8.30;;;;;;;4.96;100.00;95270.88;5072842;28;20475;-74
2021/12/24 04:00:27;;;;;;;13.97;8.17;;;;;;;4.99;100.00;95263.13;5076159;28;20418;-74
2021/12/24 04:03:17;;;;;;;9.93;8.60;;;;;;;4.95;100.00;95261.47;5079848;28;20447;-74
2021/12/24 04:06:17;;;;;;;11.53;8.43;;;;;;;5.07;100.00;95258.16;5044642;28;20526;-73
2021/12/24 04:09:08;;;;;;;12.30;9.17;;;;;;;4.98;100.00;95242.50;5048085;28;20435;-74
2021/12/24 04:11:43;;;;;;;15.27;9.37;;;;;;;4.95;100.00;95249.16;5072775;28;20484;-74
2021/12/24 04:14:10;;;;;;;10.03;8.60;;;;;;;5.04;100.00;95257.72;5055917;28;20962;-74
2021/12/24 04:16:38;;;;;;;13.87;8.30;;;;;;;4.98;100.00;95242.50;5072624;28;20446;-74
2021/12/24 04:24:52;;;;;;;12.67;8.50;;;;;;;4.84;100.00;95213.94;5072696;28;20962;-74
2021/12/24 04:27:29;;;;;;;12.23;8.20;;;;;;;4.99;100.00;95242.19;5056119;28;20465;-74
2021/12/24 04:30:06;;;;;;;10.27;7.90;;;;;;;5.01;100.00;95221.69;5072607;28;20441;-74
2021/12/24 04:32:51;;;;;;;9.40;7.90;;;;;;;5.00;100.00;95245.56;5072879;28;20442;-75
2021/12/24 04:51:27;;;;;;;10.70;7.90;;;;;;;5.08;100.00;95257.09;5075857;28;20443;-74
2021/12/24 05:02:56;;;;;;;10.27;7.67;;;;;;;5.09;100.00;95264.63;5093078;28;20449;-74
2021/12/24 05:05:36;;;;;;;9.73;7.80;;;;;;;4.96;100.00;95245.44;5075790;28;20435;-74
2021/12/24 05:10:40;;;;;;;10.90;7.43;;;;;;;5.18;100.00;95269.81;5075766;28;20461;-74
2021/12/24 05:13:11;;;;;;;11.17;8.20;;;;;;;5.11;100.00;95259.06;5059587;28;20531;-74
2021/12/24 05:16:05;;;;;;;10.50;6.87;;;;;;;5.05;100.00;95237.53;5078830;28;20411;-74
2021/12/24 05:21:54;;;;;;;12.40;8.33;;;;;;;5.21;100.00;95254.25;5071617;28;20853;-74
2021/12/24 05:24:24;;;;;;;11.40;5.50;;;;;;;5.34;100.00;95250.63;5058809;28;21031;-74
2021/12/24 05:26:54;;;;;;;7.77;6.80;;;;;;;5.27;100.00;95247.72;5075283;28;21000;-74
2021/12/24 05:29:21;;;;;;;9.37;7.37;;;;;;;5.43;100.00;95255.00;5093652;28;20921;-76
2021/12/24 05:31:49;;;;;;;12.17;9.37;;;;;;;5.17;100.00;95223.75;5075266;28;20966;-74
2021/12/24 05:34:18;;;;;;;12.83;8.70;;;;;;;5.41;100.00;95247.47;5075262;28;20435;-74
2021/12/24 05:36:49;;;;;;;8.57;6.70;;;;;;;5.41;100.00;95242.22;5075112;28;20467;-74
2021/12/24 05:39:18;;;;;;;12.67;8.50;;;;;;;5.50;100.00;95268.38;5075186;28;20528;-74
2021/12/24 05:41:46;;;;;;;9.47;7.67;;;;;;;5.39;100.00;95246.25;5075163;28;20995;-74
2021/12/24 05:44:16;;;;;;;15.63;8.57;;;;;;;5.38;100.00;95240.25;5075193;28;20443;-74
2021/12/24 05:46:46;;;;;;;12.70;9.77;;;;;;;5.15;100.00;95213.59;5074919;28;20467;-74
2021/12/24 05:49:34;;;;;;;13.60;9.17;;;;;;;5.47;100.00;95243.56;5078032;28;20415;-74
2021/12/24 05:52:20;;;;;;;10.50;8.27;;;;;;;5.59;100.00;95264.59;5093142;28;20426;-76
2021/12/24 05:55:01;;;;;;;13.23;10.53;;;;;;;5.47;100.00;95248.81;5060385;28;20435;-76
2021/12/24 05:57:28;;;;;;;12.57;9.40;;;;;;;5.56;100.00;95254.00;5073861;28;20455;-74
2021/12/24 05:59:55;;;;;;;16.17;12.00;;;;;;;5.47;100.00;95246.19;5074631;28;20477;-74
2021/12/24 06:02:23;;;;;;;8.70;7.87;;;;;;;5.61;100.00;95251.19;5074665;28;20446;-74
2021/12/24 06:04:50;;;;;;;14.50;11.40;;;;;;;5.47;100.00;95238.31;5075094;28;20467;-74
2021/12/24 06:07:16;;;;;;;10.00;8.67;;;;;;;5.41;100.00;95223.13;5074632;28;20455;-76
2021/12/24 06:09:43;;;;;;;10.63;9.03;;;;;;;5.43;100.00;95228.81;5074634;28;20950;-76
2021/12/24 06:12:10;;;;;;;14.53;8.50;;;;;;;5.46;100.00;95231.53;5074510;28;20471;-76
2021/12/24 06:14:39;;;;;;;11.83;9.40;;;;;;;5.44;100.00;95246.06;5074463;28;20839;-76
2021/12/24 06:17:10;;;;;;;12.60;10.33;;;;;;;5.57;100.00;95248.44;5074345;28;20559;-76
2021/12/24 06:19:37;;;;;;;10.87;8.73;;;;;;;5.48;100.00;95233.88;5073997;28;20577;-76
2021/12/24 06:22:03;;;;;;;11.23;9.20;;;;;;;5.47;100.00;95243.56;5074339;28;20488;-74
2021/12/24 06:24:30;;;;;;;15.73;10.40;;;;;;;5.57;100.00;95269.41;5074519;28;20450;-74
2021/12/24 06:26:58;;;;;;;10.87;9.93;;;;;;;5.59;100.00;95279.56;5073807;28;20467;-74
2021/12/24 06:29:24;;;;;;;16.90;11.30;;;;;;;5.30;100.00;95264.66;5057718;28;20504;-74
2021/12/24 06:31:51;;;;;;;12.03;9.73;;;;;;;5.58;100.00;95286.66;5074053;28;20475;-76
2021/12/24 06:34:18;;;;;;;11.13;9.83;;;;;;;5.41;100.00;95268.44;5074103;28;20538;-76
2021/12/24 06:36:48;;;;;;;14.03;10.93;;;;;;;5.54;100.00;95282.38;5073947;28;20981;-76
2021/12/24 06:39:15;;;;;;;13.73;9.57;;;;;;;5.42;100.00;95277.06;5092201;28;20489;-76
2021/12/24 06:41:43;;;;;;;12.87;9.50;;;;;;;5.48;100.00;95283.66;5057427;28;20443;-76
2021/12/24 06:44:11;;;;;;;12.53;10.00;;;;;;;5.27;100.00;95263.44;5073926;28;20454;-76
2021/12/24 06:46:40;;;;;;;11.97;9.20;;;;;;;5.41;100.00;95286.00;5073784;28;20423;-76
2021/12/24 06:49:09;;;;;;;10.83;9.60;;;;;;;5.42;100.00;95285.69;5073967;28;20419;-74
2021/12/24 06:51:36;;;;;;;15.87;9.60;;;;;;;5.57;100.00;95294.84;5057241;28;20801;-74
2021/12/24 06:54:03;;;;;;;13.20;9.93;;;;;;;5.57;100.00;95302.72;5073697;28;20450;-76
2021/12/24 06:56:30;;;;;;;14.73;10.23;;;;;;;5.51;100.00;95294.28;5057155;28;20493;-76
2021/12/24 06:58:58;;;;;;;10.70;9.60;;;;;;;5.50;100.00;95279.63;5073625;28;20455;-76
2021/12/24 07:01:25;;;;;;;12.53;10.30;;;;;;;5.46;100.00;95275.34;5073509;28;20474;-76
2021/12/24 07:03:54;;;;;;;17.23;10.70;;;;;;;5.49;100.00;95283.34;5057531;28;20451;-75
2021/12/24 07:06:22;;;;;;;13.40;10.03;;;;;;;5.43;100.00;95271.50;5073765;28;21010;-75
2021/12/24 07:08:48;;;;;;;15.43;11.73;;;;;;;5.20;100.00;95267.63;5073303;28;20518;-76
2021/12/24 07:11:15;;;;;;;12.43;10.33;;;;;;;5.41;100.00;95310.38;5073772;28;20485;-74
2021/12/24 07:13:42;;;;;;;13.70;9.60;;;;;;;5.47;100.00;95314.31;5073604;28;20978;-74
2021/12/24 07:16:08;;;;;;;13.40;8.90;;;;;;;5.46;100.00;95315.41;5073406;28;20555;-74
2021/12/24 07:18:37;;;;;;;13.40;10.33;;;;;;;5.40;100.00;95300.97;5056457;28;20555;-76
2021/12/24 07:21:05;;;;;;;13.70;9.90;;;;;;;5.36;100.00;95297.47;5091641;28;20466;-74
2021/12/24 07:23:32;;;;;;;14.10;10.00;;;;;;;5.38;100.00;95290.03;5073329;28;20435;-74
2021/12/24 07:25:59;;;;;;;15.33;10.93;;;;;;;5.27;100.00;95296.72;5073272;28;20470;-74
2021/12/24 07:28:26;;;;;;;17.57;10.40;;;;;;;5.32;100.00;95294.69;5073320;28;20513;-74
2021/12/24 07:30:53;;;;;;;11.30;8.87;;;;;;;5.46;100.00;95314.66;5073297;28;20431;-74
2021/12/24 07:33:20;;;;;;;11.57;9.80;;;;;;;5.40;100.00;95310.69;5073015;28;20939;-74
2021/12/24 07:35:47;;;;;;;15.70;11.27;;;;;;;5.33;100.00;95293.59;5056641;28;20500;-76
2021/12/24 07:38:13;;;;;;;17.07;10.60;;;;;;;5.37;100.00;95299.00;5072972;28;20459;-76
2021/12/24 07:40:45;;;;;;;15.90;10.50;;;;;;;5.39;100.00;95299.44;5073126;28;20435;-76
2021/12/24 07:43:12;;;;;;;17.50;12.00;;;;;;;5.44;100.00;95314.19;5056601;28;20477;-76
2021/12/24 07:45:41;;;;;;;12.33;11.03;;;;;;;5.29;100.00;95291.94;5073336;28;20439;-76
2021/12/24 07:48:14;;;;;;;15.13;10.67;;;;;;;5.41;100.00;95317.47;5056732;28;20839;-76
2021/12/24 07:53:15;;;;;;;12.70;9.90;;;;;;;5.42;100.00;95319.00;5073013;28;20857;-76
2021/12/24 07:55:43;;;;;;;20.13;11.97;;;;;;;5.43;100.00;95317.91;5056386;28;20435;-76
2021/12/24 07:58:10;;;;;;;13.50;9.67;;;;;;;5.34;100.00;95299.59;5072878;28;20973;-76
2021/12/24 08:00:39;;;;;;;11.70;9.20;;;;;;;5.45;100.00;95306.03;5072859;28;20463;-76
2021/12/24 08:03:06;;;;;;;10.93;8.73;;;;;;;5.45;100.00;95313.88;5073075;28;20439;-77
2021/12/24 08:05:38;;;;;;;16.97;11.40;;;;;;;5.43;100.00;95323.16;5072816;28;20459;-76
2021/12/24 08:08:06;;;;;;;10.77;9.67;;;;;;;5.45;100.00;95316.50;5072792;28;20545;-76
2021/12/24 08:10:34;;;;;;;13.67;10.13;;;;;;;5.31;100.00;95306.25;5072658;28;20539;-76
2021/12/24 08:13:02;;;;;;;11.70;10.07;;;;;;;5.42;100.00;95314.53;5072782;28;20858;-74
2021/12/24 08:15:29;;;;;;;10.33;8.97;;;;;;;5.49;100.00;95314.81;5056059;28;20440;-74
2021/12/24 08:17:56;;;;;;;12.37;8.10;;;;;;;5.41;100.00;95310.38;5072765;28;20508;-74
2021/12/24 08:20:25;;;;;;;11.03;8.40;;;;;;;5.45;100.00;95311.25;5057640;28;20487;-76
2021/12/24 08:22:54;;;;;;;14.07;8.60;;;;;;;5.53;100.00;95323.56;5077111;28;20564;-76
2021/12/24 08:25:22;;;;;;;12.50;10.03;;;;;;;5.43;100.00;95307.44;5076660;28;20926;-76
2021/12/24 08:27:49;;;;;;;10.33;8.00;;;;;;;5.44;100.00;95295.84;5076366;28;20902;-76
2021/12/24 08:30:17;;;;;;;6.90;6.30;;;;;;;5.55;100.00;95310.13;5076488;28;20445;-76
2021/12/24 08:32:44;;;;;;;11.77;9.20;;;;;;;5.53;100.00;95315.69;5076461;28;20443;-76
2021/12/24 08:35:14;;;;;;;11.33;8.83;;;;;;;5.55;100.00;95315.38;5076274;28;20470;-76
2021/12/24 08:37:41;;;;;;;14.03;8.23;;;;;;;5.51;100.00;95307.38;5076243;28;20971;-76
2021/12/24 08:40:09;;;;;;;10.87;8.87;;;;;;;5.55;100.00;95305.66;5094292;28;21008;-76
2021/12/24 08:42:36;;;;;;;11.40;9.30;;;;;;;5.40;100.00;95293.13;5076330;28;20513;-76
2021/12/24 08:45:05;;;;;;;8.20;6.23;;;;;;;5.54;100.00;95298.13;5076418;28;20982;-77
2021/12/24 08:47:32;;;;;;;11.90;7.23;;;;;;;5.56;100.00;95298.56;5059427;28;20812;-76
2021/12/24 08:49:58;;;;;;;4.70;4.20;;;;;;;5.56;100.00;95301.94;5076427;28;20478;-76
2021/12/24 08:52:25;;;;;;;7.50;6.80;;;;;;;5.62;100.00;95311.16;5059547;28;20457;-76
2021/12/24 08:54:52;;;;;;;6.13;5.50;;;;;;;5.63;100.00;95317.19;5094325;28;20431;-76
2021/12/24 08:57:18;;;;;;;9.03;7.70;;;;;;;5.58;100.00;95307.63;5075936;28;20467;-76
2021/12/24 08:59:45;;;;;;;25.17;14.90;;;;;;;5.56;100.00;95301.94;5076010;28;20910;-76
2021/12/24 09:02:16;;;;;;;8.13;6.13;;;;;;;5.52;100.00;95300.28;5094262;28;20457;-76
2021/12/24 09:04:43;;;;;;;10.33;6.60;;;;;;;5.59;100.00;95321.50;5059350;28;20473;-76
2021/12/24 09:07:10;;;;;;;7.43;6.83;;;;;;;5.42;100.00;95285.69;5075781;28;20498;-76
2021/12/24 09:09:37;;;;;;;17.13;11.27;;;;;;;5.55;100.00;95297.03;5075904;28;20573;-76
2021/12/24 09:12:05;;;;;;;8.37;6.27;;;;;;;5.52;100.00;95274.06;5076031;28;20431;-76
2021/12/24 09:14:31;;;;;;;7.80;6.97;;;;;;;5.55;100.00;95278.66;5076055;28;20435;-76
2021/12/24 09:17:01;;;;;;;9.33;7.00;;;;;;;5.59;100.00;95290.81;5075482;28;20490;-76
2021/12/24 09:19:30;;;;;;;8.13;6.43;;;;;;;5.57;100.00;95282.50;5075812;28;20487;-77
2021/12/24 09:21:57;;;;;;;7.47;6.77;;;;;;;5.50;100.00;95273.63;5059392;28;20475;-76
2021/12/24 09:24:30;;;;;;;6.63;5.80;;;;;;;5.62;100.00;95290.19;5075723;28;20496;-76
2021/12/24 09:26:58;;;;;;;8.73;6.87;;;;;;;5.53;100.00;95281.63;5093926;28;20451;-75
2021/12/24 09:29:26;;;;;;;9.07;6.97;;;;;;;5.61;100.00;95287.91;5075923;28;20474;-75
2021/12/24 09:31:54;;;;;;;6.90;6.20;;;;;;;5.61;100.00;95290.53;5075893;28;20442;-75
2021/12/24 09:34:21;;;;;;;7.90;5.90;;;;;;;5.47;100.00;95255.91;5059130;28;20518;-75
2021/12/24 09:36:47;;;;;;;10.30;7.10;;;;;;;5.50;100.00;95265.78;5075536;28;20966;-75
2021/12/24 09:39:14;;;;;;;11.33;7.60;;;;;;;5.55;100.00;95263.72;5075493;28;20471;-76
2021/12/24 09:41:42;;;;;;;7.40;6.73;;;;;;;5.69;100.00;95281.81;5058929;28;20926;-75
2021/12/24 09:44:09;;;;;;;8.60;6.97;;;;;;;5.63;100.00;95280.47;5075500;28;20481;-75
2021/12/24 09:46:40;;;;;;;7.10;6.40;;;;;;;5.68;100.00;95288.13;5075416;28;20476;-75
2021/12/24 09:49:08;;;;;;;8.13;6.40;;;;;;;5.68;100.00;95284.75;5075363;28;20970;-75
2021/12/24 09:51:41;;;;;;;10.80;7.73;;;;;;;5.67;100.00;95285.84;5058428;28;20439;-75
2021/12/24 09:54:18;;;;;;;7.40;6.00;;;;;;;5.67;100.00;95263.00;5074738;28;20489;-75
2021/12/24 09:56:45;;;;;;;7.13;5.90;;;;;;;5.55;100.00;95258.47;5092983;28;20480;-75
2021/12/24 09:59:12;;;;;;;6.53;5.93;;;;;;;5.70;100.00;95270.22;5074914;28;20496;-75
2021/12/24 10:01:43;;;;;;;7.17;5.57;;;;;;;5.62;100.00;95265.84;5074859;28;20442;-76
2021/12/24 10:04:16;;;;;;;5.13;4.50;;;;;;;5.61;100.00;95262.44;5058614;28;20436;-76
2021/12/24 10:07:00;;;;;;;7.30;5.80;;;;;;;5.62;100.00;95266.59;5074904;28;20618;-76
2021/12/24 10:09:36;;;;;;;9.67;7.83;;;;;;;5.69;100.00;95279.19;5074828;28;20431;-76
2021/12/24 10:12:18;;;;;;;7.87;7.03;;;;;;;5.69;100.00;95265.31;5093018;28;20422;-75
2021/12/24 10:14:49;;;;;;;6.57;5.93;;;;;;;5.73;100.00;95274.81;5074712;28;20435;-78
2021/12/24 10:17:18;;;;;;;7.47;6.40;;;;;;;5.75;100.00;95272.69;5074360;28;20481;-75
2021/12/24 10:19:51;;;;;;;9.60;7.90;;;;;;;5.76;100.00;95278.69;5074400;28;20558;-75
2021/12/24 10:22:25;;;;;;;6.37;5.40;;;;;;;5.75;100.00;95285.78;5058682;28;20437;-73
2021/12/24 10:25:05;;;;;;;6.47;5.80;;;;;;;5.77;100.00;95280.97;5092488;28;20488;-73
2021/12/24 10:27:34;;;;;;;10.43;5.63;;;;;;;5.74;100.00;95260.63;5074333;28;20551;-73
2021/12/24 10:30:40;;;;;;;8.70;5.80;;;;;;;5.79;100.00;95264.94;5057677;28;21012;-72
2021/12/24 10:33:09;;;;;;;5.23;4.73;;;;;;;5.80;100.00;95259.34;5054861;28;20454;-73
2021/12/24 10:35:36;;;;;;;6.67;5.73;;;;;;;5.80;100.00;95275.09;5073948;28;20439;-73
2021/12/24 10:38:13;;;;;;;6.63;5.93;;;;;;;5.80;100.00;95267.22;5092128;28;20462;-73
2021/12/24 10:40:53;;;;;;;7.60;5.90;;;;;;;5.78;100.00;95260.78;5092197;28;21021;-75
2021/12/24 10:43:28;;;;;;;7.50;6.80;;;;;;;5.63;100.00;95238.53;5091658;28;20798;-73
2021/12/24 10:46:28;;;;;;;7.90;6.23;;;;;;;5.75;100.00;95258.78;5073806;28;20522;-73
2021/12/24 10:49:13;;;;;;;4.73;4.27;;;;;;;5.78;100.00;95258.16;5058187;28;20455;-74
2021/12/24 10:54:57;;;;;;;8.17;6.47;;;;;;;5.73;100.00;95256.47;5092005;28;20534;-75
2021/12/24 10:57:30;;;;;;;7.17;6.17;;;;;;;5.71;100.00;95260.50;5073709;28;20546;-74
2021/12/24 11:00:00;;;;;;;7.33;6.30;;;;;;;5.73;100.00;95266.97;5056951;28;20447;-73
2021/12/24 11:02:33;;;;;;;7.90;6.60;;;;;;;5.59;100.00;95238.38;5073658;28;20447;-74
2021/12/24 11:05:01;;;;;;;7.73;5.40;;;;;;;5.75;100.00;95254.31;5057137;28;21126;-74
2021/12/24 11:07:37;;;;;;;7.50;6.40;;;;;;;5.70;100.00;95238.00;5073686;28;20864;-74
2021/12/24 11:10:12;;;;;;;11.87;7.57;;;;;;;5.86;100.00;95247.56;5091653;28;20420;-73
2021/12/24 11:12:40;;;;;;;7.70;5.70;;;;;;;5.74;100.00;95223.91;5073429;28;20441;-73
2021/12/24 11:15:18;;;;;;;12.27;6.37;;;;;;;5.98;100.00;95233.00;5073348;28;20473;-73
2021/12/24 11:17:45;;;;;;;7.50;6.77;;;;;;;6.03;100.00;95243.31;5056755;28;20462;-73
2021/12/24 11:20:12;;;;;;;10.10;6.33;;;;;;;6.00;100.00;95236.81;5056761;28;20550;-73
2021/12/24 11:22:59;;;;;;;9.57;8.57;;;;;;;6.16;100.00;95240.41;5073219;28;20451;-73
2021/12/24 11:25:30;;;;;;;5.93;4.40;;;;;;;6.16;100.00;95240.41;5073229;28;20424;-73
2021/12/24 11:27:57;;;;;;;7.53;5.90;;;;;;;6.14;100.00;95231.28;5073516;28;20443;-73
2021/12/24 11:30:27;;;;;;;11.80;6.27;;;;;;;6.15;100.00;95244.09;5056112;28;20432;-73
2021/12/24 11:32:54;;;;;;;7.73;6.83;;;;;;;6.06;100.00;95225.06;5073182;28;20443;-73
2021/12/24 11:35:22;;;;;;;6.20;5.60;;;;;;;6.08;100.00;95232.59;5073283;28;20473;-73
2021/12/24 11:37:49;;;;;;;6.47;4.10;;;;;;;6.13;100.00;95235.00;5073054;28;20455;-73
2021/12/24 11:40:18;;;;;;;10.60;6.07;;;;;;;6.11;100.00;95245.81;5072666;28;20604;-73
2021/12/24 11:42:54;;;;;;;5.13;4.70;;;;;;;6.11;100.00;95245.06;5073128;28;20443;-73
2021/12/24 11:45:23;;;;;;;9.30;6.93;;;;;;;6.07;100.00;95252.81;5073042;28;20484;-73
2021/12/24 11:47:51;;;;;;;8.17;7.17;;;;;;;5.97;100.00;95213.09;5091254;28;20447;-74
2021/12/24 11:50:21;;;;;;;9.43;8.47;;;;;;;5.96;100.00;95224.69;5056684;28;20478;-73
2021/12/24 11:52:50;;;;;;;9.50;6.97;;;;;;;6.01;100.00;95227.09;5073489;28;20473;-75
2021/12/24 11:55:19;;;;;;;8.77;6.93;;;;;;;5.85;100.00;95203.31;5058153;28;20795;-73
2021/12/24 11:57:55;;;;;;;10.60;8.00;;;;;;;5.94;100.00;95214.53;5077807;28;20490;-75
2021/12/24 12:00:38;;;;;;;6.73;6.13;;;;;;;5.98;100.00;95225.13;5060855;28;20466;-75
2021/12/24 12:03:06;;;;;;;8.40;7.47;;;;;;;5.90;100.00;95218.88;5077350;28;20512;-74
2021/12/24 12:05:36;;;;;;;15.63;11.37;;;;;;;5.91;100.00;95236.91;5060756;28;20950;-73
2021/12/24 12:08:33;;;;;;;9.23;7.43;;;;;;;5.97;100.00;95236.72;5077213;28;20521;-73
2021/12/24 12:11:04;;;;;;;8.93;7.00;;;;;;;5.98;100.00;95246.09;5077182;28;20459;-76
2021/12/24 12:13:46;;;;;;;9.47;6.70;;;;;;;5.93;100.00;95228.72;5060466;28;20484;-74
2021/12/24 12:16:39;;;;;;;13.00;7.60;;;;;;;5.99;100.00;95251.03;5077216;28;20946;-73
2021/12/24 12:25:29;;;;;;;8.40;6.60;;;;;;;5.94;100.00;95243.38;5094951;28;20444;-74
2021/12/24 12:27:58;;;;;;;11.10;7.70;;;;;;;5.79;100.00;95210.63;5077339;28;20459;-74
2021/12/24 12:30:46;;;;;;;13.80;8.37;;;;;;;5.94;100.00;95225.00;5078115;28;20431;-74
2021/12/24 12:33:23;;;;;;;9.67;6.70;;;;;;;5.90;100.00;95211.78;5078307;28;20787;-74
2021/12/24 12:35:54;;;;;;;13.60;9.70;;;;;;;5.86;100.00;95192.50;5077792;28;20467;-74
2021/12/24 12:38:36;;;;;;;9.10;7.47;;;;;;;6.04;100.00;95232.47;5077912;28;20881;-74
2021/12/24 12:41:38;;;;;;;10.23;8.50;;;;;;;6.03;100.00;95238.81;5077537;28;20467;-74
2021/12/24 12:44:07;;;;;;;11.20;8.60;;;;;;;5.76;100.00;95187.66;5095815;28;20419;-74
2021/12/24 12:46:37;;;;;;;8.97;8.07;;;;;;;6.00;100.00;95225.56;5095290;28;20439;-74
2021/12/24 12:49:07;;;;;;;11.43;7.00;;;;;;;5.54;100.00;95156.56;5077311;28;20431;-74
2021/12/24 12:52:31;;;;;;;7.23;5.93;;;;;;;5.20;100.00;95098.09;5095034;28;20430;-74
2021/12/24 12:54:58;;;;;;;9.13;7.40;;;;;;;5.85;100.00;95184.94;5032945;28;20422;-73
2021/12/24 12:57:32;;;;;;;7.00;6.30;;;;;;;6.06;100.00;95208.53;5032981;28;20457;-73
2021/12/24 13:00:08;;;;;;;8.77;7.30;;;;;;;6.09;100.00;95205.25;5032740;28;21011;-73
2021/12/24 13:03:07;;;;;;;7.53;6.83;;;;;;;6.12;100.00;95197.50;5032319;28;20495;-73
2021/12/24 13:05:40;;;;;;;13.97;8.50;;;;;;;6.15;100.00;95199.50;5027248;28;20496;-73
2021/12/24 13:08:16;;;;;;;9.17;6.80;;;;;;;6.13;100.00;95193.03;5031879;28;20500;-73
2021/12/24 13:11:05;;;;;;;8.03;7.10;;;;;;;6.09;100.00;95185.03;5015427;28;20418;-75
2021/12/24 13:13:57;;;;;;;14.13;7.33;;;;;;;5.98;100.00;95173.41;5031559;28;20476;-74
2021/12/24 13:16:33;;;;;;;7.60;5.70;;;;;;;6.06;100.00;95190.19;5031555;28;20426;-74
2021/12/24 13:25:05;;;;;;;7.20;6.50;;;;;;;6.13;100.00;95195.66;5047427;28;20439;-73
2021/12/24 13:27:39;;;;;;;8.57;7.63;;;;;;;6.15;100.00;95204.75;5076141;28;20455;-74
2021/12/24 13:30:18;;;;;;;8.10;6.73;;;;;;;6.13;100.00;95198.28;5094117;28;20510;-74
2021/12/24 13:32:55;;;;;;;7.17;5.23;;;;;;;5.82;100.00;95141.78;5059371;28;20455;-74
2021/12/24 13:35:27;;;;;;;7.60;6.20;;;;;;;5.67;100.00;95125.91;5094106;28;20462;-74
2021/12/24 13:37:55;;;;;;;8.00;5.00;;;;;;;6.18;100.00;95200.69;5094278;28;20954;-74
2021/12/24 13:40:26;;;;;;;7.60;5.87;;;;;;;6.01;100.00;95183.28;5093952;28;20492;-74
2021/12/24 13:42:57;;;;;;;12.63;6.50;;;;;;;6.18;100.00;95217.22;5093772;28;20854;-74